Time;durP1;ratioP1;P1;durP2;ratioP2;P2;SDS_P1;SDS_P2;PMS_P1;PMS_P2;Temp;Humidity;BMP_temperature;BMP_pressure;BME280_temperature;BME280_humidity;BME280_pressure;Samples;Min_cycle;Max_cycle;Signal;HPM_P1;HPM_P2
2022/11/03 05:56:22;;;;;;;87.33;41.40;;;;;;;9.59;87.01;95102.72;1660923;85;21035;-51
2022/11/03 05:58:49;;;;;;;97.70;45.98;;;;;;;9.69;86.27;95105.78;1658753;86;21065;-55
2022/11/03 06:01:31;;;;;;;88.20;47.73;;;;;;;9.69;85.64;95104.41;1639278;86;21034;-54
2022/11/03 06:04:07;;;;;;;78.78;38.75;;;;;;;9.67;85.30;95109.56;1641583;86;22048;-54
2022/11/03 06:06:36;;;;;;;90.40;39.53;;;;;;;9.62;85.06;95112.84;1647138;86;20959;-54
2022/11/03 06:09:18;;;;;;;68.33;37.80;;;;;;;9.56;85.03;95118.08;1643630;86;21022;-54
2022/11/03 06:11:45;;;;;;;65.47;35.92;;;;;;;9.56;85.19;95121.41;1651408;86;20987;-57
2022/11/03 06:14:20;;;;;;;74.47;38.83;;;;;;;9.56;85.47;95120.04;1658244;86;21074;-54
2022/11/03 06:16:57;;;;;;;126.10;54.93;;;;;;;9.60;85.50;95122.12;1658777;85;21152;-55
2022/11/03 06:19:38;;;;;;;110.57;42.33;;;;;;;9.68;85.56;95122.87;1637353;87;21064;-54
2022/11/03 06:22:27;;;;;;;80.03;32.70;;;;;;;9.68;84.86;95122.87;1632621;86;21077;-55
2022/11/03 06:24:59;;;;;;;115.22;36.33;;;;;;;9.62;84.45;95121.08;1586177;89;21030;-54
2022/11/03 06:27:29;;;;;;;63.28;33.53;;;;;;;9.54;84.65;95121.08;1587879;87;48908;-55
2022/11/03 06:30:01;;;;;;;64.67;36.73;;;;;;;9.49;84.90;95121.61;1666176;85;21237;-54
2022/11/03 06:32:27;;;;;;;68.28;37.80;;;;;;;9.46;85.25;95120.48;1688579;84;21021;-55
2022/11/03 06:34:56;;;;;;;59.93;35.63;;;;;;;9.53;85.62;95118.16;1672879;84;21041;-54
2022/11/03 06:37:26;;;;;;;99.95;38.13;;;;;;;9.65;85.39;95131.95;1670640;85;21127;-54
2022/11/03 06:39:59;;;;;;;70.67;38.73;;;;;;;9.71;84.93;95130.84;1671656;84;21080;-54
2022/11/03 06:42:26;;;;;;;88.20;49.15;;;;;;;9.73;85.17;95132.55;1642672;85;21429;-55
2022/11/03 06:44:54;;;;;;;65.25;37.45;;;;;;;9.90;85.53;95136.81;1640360;86;21096;-55
2022/11/03 06:47:24;;;;;;;62.03;34.80;;;;;;;10.07;84.96;95139.13;1623493;85;21040;-54
2022/11/03 06:49:58;;;;;;;48.60;28.55;;;;;;;10.26;84.65;95138.21;1643980;86;21091;-57
2022/11/03 06:52:36;;;;;;;36.90;25.48;;;;;;;10.39;83.94;95144.50;1648316;86;21066;-52
2022/11/03 06:55:13;;;;;;;44.45;23.85;;;;;;;10.49;83.18;95144.06;1591859;87;21109;-55
2022/11/03 06:57:42;;;;;;;46.08;24.30;;;;;;;10.55;82.74;95141.69;1645914;85;21086;-55
2022/11/03 07:00:21;;;;;;;37.20;23.87;;;;;;;10.65;82.21;95157.71;1642296;85;21498;-55
2022/11/03 07:03:30;;;;;;;42.27;24.12;;;;;;;10.71;81.77;95155.98;1650455;85;21125;-55
2022/11/03 07:05:59;;;;;;;39.67;24.50;;;;;;;10.80;81.97;95151.38;1644414;85;21066;-56
2022/11/03 07:08:31;;;;;;;43.13;28.02;;;;;;;10.97;81.64;95150.83;1649240;85;21870;-55
2022/11/03 07:11:18;;;;;;;57.62;29.87;;;;;;;11.06;81.52;95145.45;1645768;85;21053;-55
2022/11/03 07:13:51;;;;;;;53.70;29.27;;;;;;;11.22;81.37;95148.10;1649589;85;21073;-60
2022/11/03 07:16:29;;;;;;;53.08;27.17;;;;;;;11.42;80.83;95147.27;1655917;85;21634;-57
2022/11/03 07:18:59;;;;;;;42.88;26.55;;;;;;;11.55;80.39;95153.50;1647517;85;21033;-56
2022/11/03 07:21:49;;;;;;;41.60;25.08;;;;;;;11.71;79.62;95145.13;1637829;86;21189;-58
2022/11/03 07:24:26;;;;;;;33.50;20.20;;;;;;;11.81;78.92;95142.64;1645112;85;21545;-57
2022/11/03 07:27:03;;;;;;;41.48;24.07;;;;;;;11.85;78.12;95138.36;1629456;85;21602;-58
2022/11/03 07:29:30;;;;;;;46.35;23.60;;;;;;;11.85;77.37;95139.15;1622074;87;21135;-56
2022/11/03 07:31:58;;;;;;;35.03;20.45;;;;;;;11.82;77.39;95140.05;1628425;87;21074;-60
2022/11/03 07:34:30;;;;;;;31.87;22.52;;;;;;;11.89;77.25;95142.55;1643609;85;22364;-57
2022/11/03 07:36:57;;;;;;;37.58;22.70;;;;;;;11.97;77.08;95138.35;1648046;85;21038;-56
2022/11/03 07:39:31;;;;;;;33.45;21.52;;;;;;;12.13;77.01;95132.67;1640342;85;21025;-56
2022/11/03 07:41:58;;;;;;;29.10;20.72;;;;;;;12.33;76.85;95130.97;1641573;85;21097;-57
2022/11/03 07:44:27;;;;;;;33.92;20.68;;;;;;;12.52;76.34;95134.80;1637305;85;21078;-59
2022/11/03 07:46:56;;;;;;;31.93;19.37;;;;;;;12.66;74.83;95132.88;1643350;86;21116;-59
2022/11/03 07:49:28;;;;;;;43.78;20.82;;;;;;;12.58;74.15;95137.13;1639437;85;22208;-58
2022/11/03 07:51:58;;;;;;;36.60;21.20;;;;;;;12.56;73.92;95132.67;1643942;85;21081;-56
2022/11/03 07:54:30;;;;;;;29.57;18.30;;;;;;;12.60;73.79;95136.07;1648342;85;21094;-56
2022/11/03 07:57:02;;;;;;;27.13;18.57;;;;;;;12.63;73.30;95131.81;1655267;85;20998;-55
2022/11/03 07:59:42;;;;;;;24.65;18.32;;;;;;;12.58;73.21;95131.61;1630574;86;22030;-55
2022/11/03 08:02:33;;;;;;;41.58;20.05;;;;;;;12.59;73.15;95138.08;1620578;86;21018;-60
2022/11/03 08:05:03;;;;;;;39.85;19.32;;;;;;;12.58;73.32;95132.40;1646886;85;21061;-56
2022/11/03 08:07:31;;;;;;;28.70;17.27;;;;;;;12.65;73.41;95120.30;1646195;85;21051;-54
2022/11/03 08:09:59;;;;;;;28.23;18.77;;;;;;;12.74;73.19;95124.51;1649986;85;21579;-53
2022/11/03 08:12:26;;;;;;;29.45;18.92;;;;;;;12.81;73.49;95121.47;1643109;85;21271;-55
2022/11/03 08:14:53;;;;;;;31.48;17.50;;;;;;;12.89;72.88;95120.00;1645502;85;21105;-54
2022/11/03 08:17:20;;;;;;;34.50;22.07;;;;;;;13.01;72.84;95115.78;1647147;85;21055;-55
2022/11/03 08:19:46;;;;;;;33.10;19.87;;;;;;;13.15;72.87;95111.69;1633550;86;21100;-56
2022/11/03 08:22:13;;;;;;;27.75;17.65;;;;;;;13.34;72.41;95111.31;1605565;87;21087;-57
2022/11/03 08:24:40;;;;;;;26.55;17.55;;;;;;;13.54;71.56;95112.28;1631710;87;21268;-60
2022/11/03 08:27:07;;;;;;;24.02;16.45;;;;;;;13.56;70.58;95105.67;1628947;86;21085;-57
2022/11/03 08:29:34;;;;;;;24.40;15.45;;;;;;;13.53;70.14;95101.84;1581708;89;21078;-58
2022/11/03 08:32:02;;;;;;;33.70;15.10;;;;;;;13.61;70.06;95098.19;1625375;85;21502;-55
2022/11/03 08:34:29;;;;;;;25.80;16.62;;;;;;;13.69;69.33;95098.03;1627724;86;21479;-56
2022/11/03 08:36:56;;;;;;;26.73;15.80;;;;;;;13.76;69.23;95090.81;1626475;86;23044;-55
2022/11/03 08:39:23;;;;;;;25.12;15.85;;;;;;;13.89;69.66;95090.07;1607668;86;21073;-55
2022/11/03 08:41:50;;;;;;;23.32;15.40;;;;;;;14.12;69.63;95088.08;1628087;86;21083;-57
2022/11/03 08:44:17;;;;;;;23.87;15.18;;;;;;;14.36;68.48;95080.09;1630463;86;21094;-58
2022/11/03 09:28:58;;;;;;;37.42;6.17;;;;;;;17.21;47.92;95034.09;1668757;83;21613;-80
2022/11/03 09:31:42;;;;;;;10.32;3.80;;;;;;;17.21;45.31;95027.15;1613056;88;21603;-81
2022/11/03 09:34:21;;;;;;;9.53;6.42;;;;;;;17.18;44.80;95020.55;1596732;89;21093;-85
2022/11/03 09:36:59;;;;;;;5.12;3.30;;;;;;;17.16;44.84;95025.84;1576293;89;21014;-86
2022/11/03 09:39:42;;;;;;;10.58;4.17;;;;;;;17.27;43.95;95016.25;1571368;89;21275;-91
2022/11/03 09:42:16;;;;;;;9.35;4.25;;;;;;;17.70;43.91;95017.39;1610241;88;21112;-87
2022/11/03 09:44:49;;;;;;;16.65;3.98;;;;;;;18.15;41.59;95016.69;1509692;94;21149;-86
2022/11/03 09:47:45;;;;;;;15.15;4.78;;;;;;;18.48;40.84;95021.38;1465861;98;21291;-85
2022/11/03 09:50:23;;;;;;;11.33;3.65;;;;;;;18.88;40.49;95019.88;1447456;99;21165;-86
2022/11/03 09:53:09;;;;;;;6.58;3.77;;;;;;;19.31;38.99;95013.12;1447252;99;21159;-85
2022/11/03 09:55:55;;;;;;;6.15;3.50;;;;;;;19.52;38.53;95000.57;1350998;102;21270;-88
2022/11/03 09:58:28;;;;;;;5.62;3.15;;;;;;;19.75;37.72;95006.41;1292322;109;21296;-85
2022/11/03 10:01:07;;;;;;;7.58;3.17;;;;;;;19.79;37.50;95006.95;1354024;105;21440;-84
2022/11/03 10:03:40;;;;;;;6.95;3.20;;;;;;;19.89;36.26;95005.46;1307986;108;21247;-82
2022/11/03 10:06:09;;;;;;;3.58;2.33;;;;;;;19.71;36.70;95005.88;1305594;108;21228;-83
2022/11/03 10:08:41;;;;;;;9.70;2.92;;;;;;;19.63;37.30;94993.67;1305923;108;21265;-88
2022/11/03 10:11:25;;;;;;;19.60;3.62;;;;;;;19.75;36.36;94989.65;1306208;105;21188;-87
2022/11/03 10:13:54;;;;;;;6.78;2.85;;;;;;;19.91;36.00;94990.36;1294939;109;21260;-89
2022/11/03 10:16:22;;;;;;;6.40;2.52;;;;;;;19.99;36.17;94981.64;1263922;113;21217;-82
2022/11/03 10:18:52;;;;;;;15.63;3.42;;;;;;;19.95;35.21;94985.29;1264225;112;21379;-83
2022/11/03 10:21:32;;;;;;;5.65;2.87;;;;;;;19.90;34.94;94993.02;1259902;113;21165;-85
2022/11/03 10:24:13;;;;;;;4.78;1.95;;;;;;;20.00;33.78;94987.36;1260563;108;21503;-88
2022/11/03 10:26:49;;;;;;;11.65;3.58;;;;;;;20.18;32.93;94981.36;1267799;111;21203;-85
2022/11/03 10:29:24;;;;;;;5.97;3.25;;;;;;;20.59;32.66;94969.88;1279962;109;21237;-84
2022/11/03 10:31:55;;;;;;;4.97;2.70;;;;;;;20.96;32.41;94971.84;1290381;110;21222;-82
2022/11/03 10:34:40;;;;;;;6.20;3.30;;;;;;;21.27;31.78;94972.32;1319854;104;21054;-83
2022/11/03 10:37:21;;;;;;;6.40;4.10;;;;;;;21.63;30.56;94960.71;1400460;98;21206;-83
2022/11/03 10:39:50;;;;;;;11.65;3.72;;;;;;;22.07;29.62;94962.05;1397374;100;21217;-86
2022/11/03 10:42:38;;;;;;;13.48;2.60;;;;;;;22.27;28.84;94960.30;1384926;101;21130;-87
2022/11/03 10:45:17;;;;;;;9.43;2.27;;;;;;;22.41;27.92;94951.45;1397017;102;21333;-85
2022/11/03 10:47:44;;;;;;;6.08;2.70;;;;;;;22.67;27.76;94958.16;1399364;102;21153;-84
2022/11/03 10:50:22;;;;;;;7.78;2.30;;;;;;;23.10;28.26;94956.95;1392620;103;21152;-84
2022/11/03 10:52:50;;;;;;;5.45;2.55;;;;;;;23.35;27.43;94957.14;1394086;103;21279;-86
2022/11/03 10:55:19;;;;;;;4.72;2.30;;;;;;;23.43;26.96;94956.02;1394421;103;21143;-89
2022/11/03 10:58:01;;;;;;;8.45;2.67;;;;;;;23.56;27.09;94948.37;1394421;102;21966;-86
2022/11/03 11:00:41;;;;;;;10.65;4.25;;;;;;;23.75;26.52;94945.72;1431801;97;21034;-92
2022/11/03 11:03:47;;;;;;;13.03;9.80;;;;;;;24.01;26.86;94937.53;1433724;99;21175;-89
2022/11/03 11:06:26;;;;;;;25.85;22.58;;;;;;;24.40;26.84;94945.56;1411328;99;21133;-89
2022/11/03 11:09:00;;;;;;;13.62;7.12;;;;;;;24.51;24.85;94940.42;1407405;98;21171;-89
2022/11/03 11:11:41;;;;;;;18.45;15.40;;;;;;;24.47;25.26;94924.50;1393147;101;21217;-86
2022/11/03 11:17:08;;;;;;;5.67;3.83;;;;;;;25.06;25.24;94924.11;1409665;97;21062;-81
2022/11/03 11:20:29;;;;;;;3.20;2.40;;;;;;;25.45;24.29;94922.84;1446051;99;21476;-86
2022/11/03 11:23:33;;;;;;;27.67;12.78;;;;;;;25.53;23.55;94917.43;1376542;101;21211;-87
2022/11/03 11:26:28;;;;;;;18.80;16.82;;;;;;;25.26;24.42;94910.86;1299022;106;21377;-79
2022/11/03 11:38:54;;;;;;;10.18;8.13;;;;;;;26.07;23.71;94895.85;1296538;108;21192;-83
2022/11/03 11:42:18;;;;;;;4.20;2.77;;;;;;;26.52;22.58;94893.59;1305918;109;21760;-81
2022/11/03 11:44:58;;;;;;;6.17;2.72;;;;;;;26.74;22.08;94890.91;1313858;108;21277;-83
2022/11/03 11:47:50;;;;;;;10.00;3.60;;;;;;;26.86;21.98;94887.27;1259085;111;21240;-84
2022/11/03 11:50:42;;;;;;;12.50;4.62;;;;;;;26.93;22.04;94883.77;1241529;115;21224;-84
2022/11/03 11:53:26;;;;;;;6.25;3.62;;;;;;;27.11;22.23;94882.84;1258827;114;21182;-84
2022/11/03 12:09:32;;;;;;;6.22;3.22;;;;;;;28.21;21.00;94873.48;1239473;111;22083;-84
2022/11/03 12:12:13;;;;;;;5.42;2.98;;;;;;;28.35;20.93;94868.46;1250663;114;21269;-86
2022/11/03 12:14:46;;;;;;;5.47;3.05;;;;;;;28.04;20.87;94871.06;1224193;116;21762;-85
2022/11/03 12:17:45;;;;;;;8.98;4.72;;;;;;;27.74;21.34;94868.05;1214228;116;21192;-83
2022/11/03 12:20:35;;;;;;;23.32;4.22;;;;;;;27.65;21.69;94864.95;1231611;115;21301;-81
2022/11/03 12:23:36;;;;;;;15.43;3.47;;;;;;;27.70;21.10;94864.80;1251114;112;21233;-88
2022/11/03 12:26:30;;;;;;;6.22;3.72;;;;;;;27.50;20.99;94861.38;1285399;111;21250;-86
2022/11/03 12:29:04;;;;;;;7.40;3.55;;;;;;;27.33;21.18;94857.47;1277590;110;21365;-85
2022/11/03 12:31:41;;;;;;;12.88;3.42;;;;;;;27.20;20.85;94856.91;1312451;109;21206;-86
2022/11/03 12:34:24;;;;;;;5.72;3.70;;;;;;;27.12;21.70;94850.45;1328847;108;21231;-84
2022/11/03 12:36:58;;;;;;;6.15;3.17;;;;;;;26.96;22.10;94849.42;1286257;111;21153;-88
2022/11/03 12:39:29;;;;;;;5.08;3.02;;;;;;;27.08;21.94;94847.83;1285685;110;21259;-89
2022/11/03 12:42:01;;;;;;;4.87;3.45;;;;;;;27.06;22.28;94848.37;1285831;110;21215;-87
2022/11/03 12:44:54;;;;;;;12.58;6.08;;;;;;;27.15;22.12;94849.34;1245914;113;24062;-91
2022/11/03 12:47:37;;;;;;;13.22;3.27;;;;;;;26.96;22.39;94847.36;1196946;115;21171;-85
2022/11/03 12:50:09;;;;;;;7.30;2.87;;;;;;;26.12;23.03;94839.22;1230125;116;21290;-87
2022/11/03 12:52:42;;;;;;;7.05;3.85;;;;;;;24.93;24.22;94846.00;1214274;116;21245;-89
2022/11/03 12:55:17;;;;;;;7.12;4.80;;;;;;;23.96;25.32;94845.58;1202437;119;21566;-86
2022/11/03 12:57:55;;;;;;;;;;;;;;;23.25;26.35;94854.24;1218481;114;21276;-89
2022/11/03 13:00:29;;;;;;;12.98;10.45;;;;;;;23.05;27.92;94851.10;1215589;118;20219;-87
2022/11/03 13:02:57;;;;;;;14.80;6.72;;;;;;;22.80;28.76;94851.72;1216780;115;21411;-87
2022/11/03 13:05:29;;;;;;;12.35;7.03;;;;;;;22.26;29.90;94855.05;1209056;117;21214;-89
2022/11/03 13:08:02;;;;;;;16.25;7.55;;;;;;;21.89;31.00;94850.45;1218313;115;21202;-87
2022/11/03 13:13:25;;;;;;;22.22;8.75;;;;;;;21.68;32.25;94861.90;1217673;115;21268;-87
2022/11/03 13:16:01;;;;;;;12.37;6.62;;;;;;;21.68;32.70;94853.50;1182654;120;21266;-75
2022/11/03 13:18:38;;;;;;;17.98;9.30;;;;;;;21.48;33.33;94854.56;1184185;119;21255;-86
2022/11/03 13:21:12;;;;;;;24.65;10.80;;;;;;;21.09;33.94;94855.98;1186583;117;21400;-83
2022/11/03 13:23:49;;;;;;;23.73;10.38;;;;;;;20.31;35.17;94849.66;1231241;110;21269;-90
2022/11/03 13:26:19;;;;;;;24.45;12.43;;;;;;;19.36;36.59;94849.16;1296191;110;21153;-82
2022/11/03 13:29:09;;;;;;;37.63;16.97;;;;;;;18.59;38.07;94851.49;1321997;105;21196;-89
2022/11/03 13:31:42;;;;;;;21.48;11.28;;;;;;;17.99;39.14;94855.78;1427036;99;21127;-88
2022/11/03 13:34:09;;;;;;;30.27;13.60;;;;;;;17.80;40.32;94856.72;1441595;99;22276;-88
2022/11/03 13:36:42;;;;;;;31.12;13.58;;;;;;;18.14;40.17;94851.61;1440581;97;21158;-84
2022/11/03 13:39:13;;;;;;;27.75;14.58;;;;;;;18.56;39.85;94863.64;1393002;103;21056;-86
2022/11/03 13:41:40;;;;;;;31.80;15.03;;;;;;;19.20;39.14;94855.42;1382131;102;21119;-84
2022/11/03 13:44:07;;;;;;;21.65;11.28;;;;;;;19.85;38.34;94854.14;1392206;103;21125;-82
2022/11/03 13:46:39;;;;;;;24.07;10.03;;;;;;;20.36;37.36;94854.48;1389268;102;21142;-84
2022/11/03 13:49:09;;;;;;;30.15;14.98;;;;;;;20.78;36.59;94856.25;1381920;103;21208;-84
2022/11/03 13:51:37;;;;;;;24.95;12.33;;;;;;;21.20;36.04;94853.13;1346505;105;21227;-86
2022/11/03 13:54:07;;;;;;;27.17;15.25;;;;;;;21.44;35.44;94851.27;1329011;107;21220;-82
2022/11/03 13:56:34;;;;;;;23.85;14.47;;;;;;;21.59;35.16;94850.95;1340333;105;21270;-86
2022/11/03 13:59:01;;;;;;;20.15;10.48;;;;;;;21.74;34.81;94858.42;1348535;103;21963;-86
2022/11/03 14:01:29;;;;;;;18.02;9.38;;;;;;;21.78;34.56;94858.91;1379780;102;21148;-86
2022/11/03 14:06:47;;;;;;;23.98;12.00;;;;;;;21.78;34.53;94853.30;1399996;98;21167;-84
2022/11/03 14:09:15;;;;;;;21.73;10.60;;;;;;;21.65;34.42;94851.08;1453798;97;21112;-85
2022/11/03 14:14:35;;;;;;;17.62;7.78;;;;;;;21.48;34.56;94851.02;1464648;96;21209;-81
2022/11/03 14:17:25;;;;;;;20.20;9.43;;;;;;;21.24;34.66;94855.02;1472916;95;21196;-85
2022/11/03 14:20:15;;;;;;;16.35;9.95;;;;;;;20.99;35.30;94856.11;1444179;95;21251;31
2022/11/03 14:22:44;;;;;;;17.98;10.25;;;;;;;20.62;35.62;94845.84;1440965;95;21135;-82
2022/11/03 14:25:11;;;;;;;17.62;9.53;;;;;;;19.88;36.57;94849.56;1470550;97;21261;-82
2022/11/03 14:27:40;;;;;;;25.43;13.88;;;;;;;19.10;37.64;94851.30;1450697;97;21101;-78
2022/11/03 14:30:09;;;;;;;21.48;7.78;;;;;;;18.41;38.78;94856.05;1445703;97;21132;-81
2022/11/03 14:32:39;;;;;;;26.17;11.68;;;;;;;17.81;39.83;94854.72;1447724;99;21721;-79
2022/11/03 14:35:08;;;;;;;28.85;12.15;;;;;;;17.25;40.78;94853.30;1410848;100;21142;-79
2022/11/03 14:37:35;;;;;;;20.35;10.53;;;;;;;16.70;41.81;94855.98;1448449;97;21306;-77
2022/11/03 14:40:06;;;;;;;16.73;9.38;;;;;;;16.25;42.91;94850.96;1450553;97;21154;-78
2022/11/03 14:42:43;;;;;;;15.78;9.70;;;;;;;15.81;43.62;94853.00;1484200;93;21279;-84
2022/11/03 14:45:11;;;;;;;19.23;11.40;;;;;;;15.44;44.86;94850.44;1499058;94;21044;-87
2022/11/03 14:47:44;;;;;;;16.57;10.63;;;;;;;15.04;45.63;94852.11;1492751;96;21077;-86
2022/11/03 14:50:22;;;;;;;20.10;10.48;;;;;;;14.68;46.72;94860.05;1449930;97;21092;-84
2022/11/03 14:53:11;;;;;;;17.65;8.70;;;;;;;14.35;47.79;94861.28;1449973;97;21145;-89
2022/11/03 14:56:03;;;;;;;20.00;10.20;;;;;;;13.96;48.93;94868.49;1394487;102;22528;-89
2022/11/03 14:58:38;;;;;;;32.00;14.07;;;;;;;13.59;49.95;94867.05;1395688;100;21151;-89
2022/11/03 15:07:21;;;;;;;39.35;16.95;;;;;;;12.70;52.87;94869.28;1389266;95;21151;-84
2022/11/03 15:09:57;;;;;;;52.05;18.98;;;;;;;12.46;53.98;94859.25;1444200;98;21099;-82
2022/11/03 15:12:28;;;;;;;41.15;18.77;;;;;;;12.28;54.86;94857.83;1462114;96;21300;-87
2022/11/03 15:14:55;;;;;;;40.63;19.07;;;;;;;12.09;55.68;94858.23;1476197;96;21129;-86
2022/11/03 15:17:22;;;;;;;62.25;28.90;;;;;;;11.89;56.25;94858.59;1467075;96;21190;-89
2022/11/03 15:19:50;;;;;;;152.90;69.35;;;;;;;11.72;56.86;94866.92;1460893;94;21073;-85
2022/11/03 15:22:17;;;;;;;109.05;54.75;;;;;;;11.52;57.60;94860.20;1525968;94;21196;-90
2022/11/03 15:24:44;;;;;;;76.72;37.90;;;;;;;11.28;58.22;94861.27;1506866;94;21061;-88
2022/11/03 15:27:11;;;;;;;66.10;35.88;;;;;;;11.13;59.04;94861.61;1539650;91;21050;-86
2022/11/03 15:29:39;;;;;;;71.15;38.08;;;;;;;10.99;59.73;94858.59;1594083;86;21141;-88
2022/11/03 15:32:06;;;;;;;90.50;40.48;;;;;;;10.83;60.42;94856.77;1609005;85;21090;-87
2022/11/03 15:34:33;;;;;;;81.60;44.70;;;;;;;10.70;61.05;94860.02;1662954;85;21047;-84
2022/11/03 15:37:00;;;;;;;86.25;47.73;;;;;;;10.55;61.37;94860.34;1658386;85;21064;-86
2022/11/03 15:39:28;;;;;;;94.83;53.60;;;;;;;10.39;61.96;94867.34;1660746;85;20936;-88
2022/11/03 15:41:55;;;;;;;78.17;32.05;;;;;;;10.22;62.49;94862.59;1630008;88;21612;-89
2022/11/03 15:44:23;;;;;;;90.40;49.83;;;;;;;10.11;63.07;94866.28;1612595;89;21126;-88
2022/11/03 15:46:50;;;;;;;57.00;34.27;;;;;;;10.00;63.36;94863.67;1628624;88;21025;-82
2022/11/03 15:49:18;;;;;;;56.80;33.25;;;;;;;9.86;63.97;94869.59;1581212;88;21061;-82
2022/11/03 15:51:48;;;;;;;76.60;39.88;;;;;;;9.74;64.59;94867.60;1598841;88;20983;-84
2022/11/03 15:54:15;;;;;;;83.17;40.15;;;;;;;9.64;65.02;94871.45;1642588;86;21183;-82
2022/11/03 15:56:43;;;;;;;78.05;37.93;;;;;;;9.55;65.50;94868.57;1617737;87;20991;-84
2022/11/03 15:59:10;;;;;;;100.18;50.03;;;;;;;9.45;65.88;94879.28;1643971;87;21092;-84
2022/11/03 16:01:38;;;;;;;61.65;32.23;;;;;;;9.35;66.20;94884.46;1630420;87;21640;-83
2022/11/03 16:04:08;;;;;;;52.93;26.80;;;;;;;9.26;66.70;94881.59;1612426;89;21040;-83
2022/11/03 16:06:36;;;;;;;60.95;32.25;;;;;;;9.22;67.29;94878.19;1612108;89;21295;-81
2022/11/03 16:09:03;;;;;;;87.05;43.42;;;;;;;9.16;67.55;94879.91;1612747;89;20970;-82
2022/11/03 16:11:30;;;;;;;108.22;53.55;;;;;;;9.07;68.05;94875.66;1612028;89;21057;-81
2022/11/03 16:13:58;;;;;;;189.97;84.58;;;;;;;9.02;68.31;94877.55;1604888;88;21097;-83
2022/11/03 16:16:26;;;;;;;207.05;98.80;;;;;;;8.89;68.46;94878.11;1623121;87;21160;-81
2022/11/03 16:18:53;;;;;;;289.82;137.37;;;;;;;8.76;69.01;94873.78;1623534;88;22213;-81
2022/11/03 16:21:20;;;;;;;254.40;123.97;;;;;;;8.66;69.59;94874.81;1606656;88;21571;-83
2022/11/03 16:23:52;;;;;;;366.42;178.60;;;;;;;8.57;69.83;94874.06;1623858;88;20971;-82
2022/11/03 16:26:23;;;;;;;370.75;176.35;;;;;;;8.49;70.22;94884.27;1588527;89;21078;-81
2022/11/03 16:28:52;;;;;;;376.80;181.25;;;;;;;8.41;70.64;94880.92;1608386;89;21613;-81
2022/11/03 16:31:19;;;;;;;329.25;137.28;;;;;;;8.33;70.73;94890.54;1607770;89;21759;-81
2022/11/03 16:33:46;;;;;;;319.57;132.30;;;;;;;8.24;71.11;94880.77;1608264;89;21058;-81
2022/11/03 16:36:14;;;;;;;305.15;137.47;;;;;;;8.14;71.72;94884.52;1587043;89;21035;-84
2022/11/03 16:38:41;;;;;;;314.40;138.95;;;;;;;8.06;72.25;94886.48;1608000;89;21062;-81
2022/11/03 16:41:08;;;;;;;273.38;126.10;;;;;;;7.99;72.63;94879.19;1607920;89;21153;-81
2022/11/03 16:43:37;;;;;;;334.83;150.90;;;;;;;7.92;72.89;94878.58;1587263;89;21290;-80
2022/11/03 16:46:04;;;;;;;306.73;137.88;;;;;;;7.81;73.27;94879.41;1607989;89;21516;-81
2022/11/03 16:48:31;;;;;;;273.07;127.97;;;;;;;7.76;73.71;94882.08;1608035;89;21059;-80
2022/11/03 16:50:58;;;;;;;258.85;122.70;;;;;;;7.73;73.90;94876.06;1608001;89;21683;-82
2022/11/03 16:53:25;;;;;;;220.97;103.85;;;;;;;7.67;74.03;94880.51;1608186;89;21618;-81
2022/11/03 16:55:53;;;;;;;210.45;98.03;;;;;;;7.61;74.08;94882.22;1586955;89;21199;-82
2022/11/03 16:58:20;;;;;;;225.50;107.43;;;;;;;7.56;74.11;94884.68;1607916;89;21526;-80
2022/11/03 17:00:47;;;;;;;255.12;111.12;;;;;;;7.53;74.35;94884.16;1587184;89;21062;-81
2022/11/03 17:03:15;;;;;;;255.22;117.45;;;;;;;7.51;74.46;94879.10;1605027;89;21130;-82
2022/11/03 17:05:44;;;;;;;242.50;115.30;;;;;;;7.49;74.95;94881.49;1608834;89;21043;-80
2022/11/03 17:08:14;;;;;;;221.68;88.10;;;;;;;7.51;74.92;94891.42;1608619;89;21048;-80
2022/11/03 17:10:41;;;;;;;218.50;94.17;;;;;;;7.49;75.06;94890.31;1607903;89;21393;-81
2022/11/03 17:13:09;;;;;;;149.38;63.68;;;;;;;7.44;75.37;94890.80;1587158;89;21148;-81
2022/11/03 17:15:36;;;;;;;173.47;75.00;;;;;;;7.36;75.51;94890.17;1607867;89;21019;-81
2022/11/03 17:18:04;;;;;;;150.42;69.65;;;;;;;7.30;75.70;94895.22;1608051;89;21077;-83
2022/11/03 17:20:32;;;;;;;131.27;65.17;;;;;;;7.28;76.20;94895.63;1607996;89;21826;-82
2022/11/03 17:22:59;;;;;;;126.70;54.93;;;;;;;7.26;76.00;94893.13;1607884;89;21205;-80
2022/11/03 17:25:27;;;;;;;118.87;58.40;;;;;;;7.22;76.06;94890.48;1607788;89;21066;-81
2022/11/03 17:27:55;;;;;;;195.90;72.65;;;;;;;7.22;76.17;94891.84;1607870;89;21046;-81
2022/11/03 17:30:27;;;;;;;197.32;78.22;;;;;;;7.23;76.24;94886.55;1616454;87;21047;-81
2022/11/03 17:33:00;;;;;;;150.07;70.97;;;;;;;7.22;76.19;94887.75;1622663;87;22023;-80
2022/11/03 17:35:55;;;;;;;110.22;54.55;;;;;;;7.21;76.13;94887.58;1623576;88;21063;-82
2022/11/03 17:38:37;;;;;;;110.30;53.40;;;;;;;7.19;76.24;94889.94;1563647;87;21272;31
2022/11/03 17:41:09;;;;;;;76.90;41.58;;;;;;;7.14;76.50;94884.97;1596856;86;21141;-81
2022/11/03 17:43:39;;;;;;;144.75;58.05;;;;;;;7.13;76.71;94882.66;1590950;88;21124;-82
2022/11/03 17:46:08;;;;;;;173.53;67.58;;;;;;;7.07;76.85;94884.94;1565223;90;21251;-82
2022/11/03 17:48:37;;;;;;;180.60;68.55;;;;;;;6.99;77.05;94879.42;1612385;88;21143;-81
2022/11/03 17:51:10;;;;;;;168.45;64.42;;;;;;;6.88;77.06;94883.73;1585710;90;21575;-81
2022/11/03 17:53:41;;;;;;;154.10;65.03;;;;;;;6.78;77.30;94887.45;1536713;91;21119;-82
2022/11/03 17:56:14;;;;;;;166.25;70.95;;;;;;;6.73;77.68;94887.16;1537512;92;21025;-81
2022/11/03 17:58:52;;;;;;;154.68;69.40;;;;;;;6.72;77.74;94882.88;1536457;93;21839;-82
2022/11/03 18:01:35;;;;;;;140.47;63.40;;;;;;;6.72;77.88;94891.08;1532699;92;20973;-82
2022/11/03 18:04:13;;;;;;;154.93;73.85;;;;;;;6.69;78.19;94885.09;1534253;92;20966;-83
2022/11/03 18:06:53;;;;;;;188.70;87.40;;;;;;;6.69;78.22;94885.09;1536495;92;21222;-81
2022/11/03 18:09:30;;;;;;;189.62;88.33;;;;;;;6.61;78.18;94883.08;1518059;93;21017;-81
2022/11/03 18:15:02;;;;;;;223.30;100.40;;;;;;;6.37;78.56;94874.70;1515467;94;20978;-83
2022/11/03 18:17:38;;;;;;;177.57;83.87;;;;;;;6.33;78.98;94874.61;1491379;93;21247;-83
2022/11/03 18:20:34;;;;;;;169.15;88.58;;;;;;;6.34;79.51;94875.55;1397977;96;21147;31
2022/11/03 18:23:14;;;;;;;177.30;82.47;;;;;;;6.39;79.76;94868.26;1313347;107;21158;-79
2022/11/03 18:25:55;;;;;;;174.60;80.12;;;;;;;6.46;79.46;94878.27;1295077;111;21233;-80
2022/11/03 18:28:30;;;;;;;217.77;93.82;;;;;;;6.50;79.30;94873.53;1293894;110;21612;-78
2022/11/03 18:30:57;;;;;;;209.25;99.15;;;;;;;6.52;78.97;94876.00;1305004;108;21149;-79
2022/11/03 18:33:32;;;;;;;233.07;104.55;;;;;;;6.49;78.78;94871.98;1313035;108;21235;-82
2022/11/03 18:36:07;;;;;;;215.85;104.63;;;;;;;6.44;78.99;94873.81;1297703;110;21152;-80
2022/11/03 18:38:36;;;;;;;239.12;106.40;;;;;;;6.39;79.12;94881.92;1281887;110;22579;-79
2022/11/03 18:41:34;;;;;;;238.55;118.93;;;;;;;6.35;79.32;94872.23;1296714;109;21182;-81
2022/11/03 18:43:39;;;;;;;195.32;100.05;;;;;;;6.34;79.42;94870.69;1296087;109;21130;-79
2022/11/03 18:46:07;;;;;;;175.15;85.45;;;;;;;6.32;79.62;94874.44;1292196;110;21202;-80
2022/11/03 18:48:36;;;;;;;207.87;99.10;;;;;;;6.30;79.64;94874.09;1294973;109;21167;-77
2022/11/03 18:51:04;;;;;;;189.45;89.52;;;;;;;6.23;79.60;94868.72;1290775;109;21200;-79
2022/11/03 18:53:33;;;;;;;209.87;104.63;;;;;;;6.13;79.67;94866.95;1284679;111;21565;-79
2022/11/03 18:56:04;;;;;;;196.90;93.12;;;;;;;6.08;79.88;94864.68;1284358;111;21124;-79
2022/11/03 18:58:39;;;;;;;227.05;117.67;;;;;;;6.03;80.01;94872.77;1285046;111;21134;-80
2022/11/03 19:01:21;;;;;;;223.60;116.40;;;;;;;5.95;80.09;94866.47;1285123;110;21109;-78
2022/11/03 19:03:49;;;;;;;280.98;136.70;;;;;;;5.86;80.30;94865.63;1261796;111;21198;-76
2022/11/03 19:06:25;;;;;;;277.02;124.97;;;;;;;5.79;80.62;94861.63;1253224;113;21213;-77
2022/11/03 19:09:00;;;;;;;280.05;130.85;;;;;;;5.74;80.74;94859.34;1293615;110;21153;-83